sensor_id;sensor_type;location;lat;lon;timestamp;temperature;humidity
76291;DHT22;65100;46.884;17.410;2023-04-08T00:01:00;6.23;77.31
76291;DHT22;65100;46.884;17.410;2023-04-08T00:03:26;6.23;77.59
76291;DHT22;65100;46.884;17.410;2023-04-08T00:05:51;6.16;78.21
76291;DHT22;65100;46.884;17.410;2023-04-08T00:08:17;6.10;78.21
76291;DHT22;65100;46.884;17.410;2023-04-08T00:10:42;6.06;78.06
76291;DHT22;65100;46.884;17.410;2023-04-08T00:13:08;6.13;78.26
76291;DHT22;65100;46.884;17.410;2023-04-08T00:15:33;6.26;76.77
76291;DHT22;65100;46.884;17.410;2023-04-08T00:17:59;6.22;77.10
76291;DHT22;65100;46.884;17.410;2023-04-08T00:20:25;5.92;78.16
76291;DHT22;65100;46.884;17.410;2023-04-08T00:22:50;5.66;79.73
76291;DHT22;65100;46.884;17.410;2023-04-08T00:25:16;5.30;81.01
76291;DHT22;65100;46.884;17.410;2023-04-08T00:27:41;5.51;79.80
76291;DHT22;65100;46.884;17.410;2023-04-08T00:30:07;5.39;80.52
76291;DHT22;65100;46.884;17.410;2023-04-08T00:32:32;5.47;79.91
76291;DHT22;65100;46.884;17.410;2023-04-08T00:34:58;5.65;80.07
76291;DHT22;65100;46.884;17.410;2023-04-08T00:37:24;5.78;79.94
76291;DHT22;65100;46.884;17.410;2023-04-08T00:39:50;5.79;79.85
76291;DHT22;65100;46.884;17.410;2023-04-08T00:42:17;5.56;81.13
76291;DHT22;65100;46.884;17.410;2023-04-08T00:44:42;5.55;81.61
76291;DHT22;65100;46.884;17.410;2023-04-08T00:47:11;5.66;81.33
76291;DHT22;65100;46.884;17.410;2023-04-08T00:49:37;5.63;81.47
76291;DHT22;65100;46.884;17.410;2023-04-08T00:52:03;5.58;81.72
76291;DHT22;65100;46.884;17.410;2023-04-08T00:54:29;5.68;81.02
76291;DHT22;65100;46.884;17.410;2023-04-08T00:56:56;5.69;81.48
76291;DHT22;65100;46.884;17.410;2023-04-08T00:59:24;5.62;82.44
76291;DHT22;65100;46.884;17.410;2023-04-08T01:01:56;5.95;79.47
76291;DHT22;65100;46.884;17.410;2023-04-08T01:07:14;5.61;81.27
76291;DHT22;65100;46.884;17.410;2023-04-08T01:09:45;5.63;81.05
76291;DHT22;65100;46.884;17.410;2023-04-08T01:12:25;5.95;81.11
76291;DHT22;65100;46.884;17.410;2023-04-08T01:15:04;6.22;79.71
76291;DHT22;65100;46.884;17.410;2023-04-08T01:17:30;6.07;79.93
76291;DHT22;65100;46.884;17.410;2023-04-08T01:19:59;5.76;81.21
76291;DHT22;65100;46.884;17.410;2023-04-08T01:25:13;5.38;82.93
76291;DHT22;65100;46.884;17.410;2023-04-08T01:27:41;5.32;83.06
76291;DHT22;65100;46.884;17.410;2023-04-08T01:30:08;5.28;83.77
76291;DHT22;65100;46.884;17.410;2023-04-08T01:32:34;5.45;83.38
76291;DHT22;65100;46.884;17.410;2023-04-08T01:35:01;5.58;82.02
76291;DHT22;65100;46.884;17.410;2023-04-08T01:37:28;5.15;84.36
76291;DHT22;65100;46.884;17.410;2023-04-08T01:39:55;5.41;83.36
76291;DHT22;65100;46.884;17.410;2023-04-08T01:42:24;5.68;81.77
76291;DHT22;65100;46.884;17.410;2023-04-08T01:44:55;5.65;82.47
76291;DHT22;65100;46.884;17.410;2023-04-08T01:47:21;5.79;82.46
76291;DHT22;65100;46.884;17.410;2023-04-08T01:49:49;6.07;80.88
76291;DHT22;65100;46.884;17.410;2023-04-08T01:52:15;6.10;80.29
76291;DHT22;65100;46.884;17.410;2023-04-08T01:54:42;6.13;80.29
76291;DHT22;65100;46.884;17.410;2023-04-08T01:57:11;5.93;81.10
76291;DHT22;65100;46.884;17.410;2023-04-08T01:59:39;5.89;81.19
76291;DHT22;65100;46.884;17.410;2023-04-08T02:02:08;6.20;79.49
76291;DHT22;65100;46.884;17.410;2023-04-08T02:04:34;6.07;80.02
76291;DHT22;65100;46.884;17.410;2023-04-08T02:07:01;6.09;80.32
76291;DHT22;65100;46.884;17.410;2023-04-08T02:09:27;6.17;79.62
76291;DHT22;65100;46.884;17.410;2023-04-08T02:11:52;6.07;79.51
76291;DHT22;65100;46.884;17.410;2023-04-08T02:14:18;6.03;80.00
76291;DHT22;65100;46.884;17.410;2023-04-08T02:16:53;6.01;79.55
76291;DHT22;65100;46.884;17.410;2023-04-08T02:19:28;5.85;80.56
76291;DHT22;65100;46.884;17.410;2023-04-08T02:22:05;6.01;79.93
76291;DHT22;65100;46.884;17.410;2023-04-08T02:24:32;6.01;79.84
76291;DHT22;65100;46.884;17.410;2023-04-08T02:26:59;6.01;80.54
76291;DHT22;65100;46.884;17.410;2023-04-08T02:29:25;5.95;80.99
76291;DHT22;65100;46.884;17.410;2023-04-08T02:31:53;5.89;81.46
76291;DHT22;65100;46.884;17.410;2023-04-08T02:34:19;5.66;82.25
76291;DHT22;65100;46.884;17.410;2023-04-08T02:36:46;5.56;82.78
76291;DHT22;65100;46.884;17.410;2023-04-08T02:39:12;5.39;83.62
76291;DHT22;65100;46.884;17.410;2023-04-08T02:41:38;5.25;84.44
76291;DHT22;65100;46.884;17.410;2023-04-08T02:44:03;5.38;84.81
76291;DHT22;65100;46.884;17.410;2023-04-08T02:46:28;5.56;83.68
76291;DHT22;65100;46.884;17.410;2023-04-08T02:48:54;5.49;83.73
76291;DHT22;65100;46.884;17.410;2023-04-08T02:51:19;5.69;83.07
76291;DHT22;65100;46.884;17.410;2023-04-08T02:53:45;5.49;83.38
76291;DHT22;65100;46.884;17.410;2023-04-08T02:56:11;5.68;83.05
76291;DHT22;65100;46.884;17.410;2023-04-08T02:58:37;5.82;81.91
76291;DHT22;65100;46.884;17.410;2023-04-08T03:01:02;6.06;81.59
76291;DHT22;65100;46.884;17.410;2023-04-08T03:03:28;5.95;81.87
76291;DHT22;65100;46.884;17.410;2023-04-08T03:05:55;6.16;80.91
76291;DHT22;65100;46.884;17.410;2023-04-08T03:08:21;5.85;82.08
76291;DHT22;65100;46.884;17.410;2023-04-08T03:10:47;5.56;83.86
76291;DHT22;65100;46.884;17.410;2023-04-08T03:13:14;5.49;83.92
76291;DHT22;65100;46.884;17.410;2023-04-08T03:15:39;5.69;82.58
76291;DHT22;65100;46.884;17.410;2023-04-08T03:18:05;5.54;83.21
76291;DHT22;65100;46.884;17.410;2023-04-08T03:20:30;5.76;83.03
76291;DHT22;65100;46.884;17.410;2023-04-08T03:22:56;5.73;83.25
76291;DHT22;65100;46.884;17.410;2023-04-08T03:25:21;5.78;83.43
76291;DHT22;65100;46.884;17.410;2023-04-08T03:27:46;5.81;83.34
76291;DHT22;65100;46.884;17.410;2023-04-08T03:30:12;5.88;83.21
76291;DHT22;65100;46.884;17.410;2023-04-08T03:32:37;5.93;82.75
76291;DHT22;65100;46.884;17.410;2023-04-08T03:35:04;6.06;82.43
76291;DHT22;65100;46.884;17.410;2023-04-08T03:37:30;5.79;83.38
76291;DHT22;65100;46.884;17.410;2023-04-08T03:39:56;5.66;84.18
76291;DHT22;65100;46.884;17.410;2023-04-08T03:42:21;5.66;84.52
76291;DHT22;65100;46.884;17.410;2023-04-08T03:44:47;5.89;84.15
76291;DHT22;65100;46.884;17.410;2023-04-08T03:47:12;6.10;82.80
76291;DHT22;65100;46.884;17.410;2023-04-08T03:49:38;5.99;83.13
76291;DHT22;65100;46.884;17.410;2023-04-08T03:52:03;5.98;83.52
76291;DHT22;65100;46.884;17.410;2023-04-08T03:54:29;5.88;84.04
76291;DHT22;65100;46.884;17.410;2023-04-08T03:56:54;5.81;84.11
76291;DHT22;65100;46.884;17.410;2023-04-08T03:59:20;5.95;83.34
76291;DHT22;65100;46.884;17.410;2023-04-08T04:01:46;5.82;84.09
76291;DHT22;65100;46.884;17.410;2023-04-08T04:04:12;5.96;83.65
76291;DHT22;65100;46.884;17.410;2023-04-08T04:06:37;5.89;83.89
76291;DHT22;65100;46.884;17.410;2023-04-08T04:09:02;5.66;85.12
76291;DHT22;65100;46.884;17.410;2023-04-08T04:11:28;5.78;84.97
76291;DHT22;65100;46.884;17.410;2023-04-08T04:13:53;5.56;85.49
76291;DHT22;65100;46.884;17.410;2023-04-08T04:16:19;5.48;86.23
76291;DHT22;65100;46.884;17.410;2023-04-08T04:18:44;5.65;86.03
76291;DHT22;65100;46.884;17.410;2023-04-08T04:21:10;5.56;86.33
76291;DHT22;65100;46.884;17.410;2023-04-08T04:23:35;5.61;86.16
76291;DHT22;65100;46.884;17.410;2023-04-08T04:26:01;5.61;86.07
76291;DHT22;65100;46.884;17.410;2023-04-08T04:28:26;5.82;85.64
76291;DHT22;65100;46.884;17.410;2023-04-08T04:30:51;5.78;85.21
76291;DHT22;65100;46.884;17.410;2023-04-08T04:33:17;5.78;86.04
76291;DHT22;65100;46.884;17.410;2023-04-08T04:35:42;5.82;85.76
76291;DHT22;65100;46.884;17.410;2023-04-08T04:38:08;6.10;84.42
76291;DHT22;65100;46.884;17.410;2023-04-08T04:40:37;6.01;84.46
76291;DHT22;65100;46.884;17.410;2023-04-08T04:43:04;5.81;85.76
76291;DHT22;65100;46.884;17.410;2023-04-08T04:45:30;5.63;86.86
76291;DHT22;65100;46.884;17.410;2023-04-08T04:47:55;5.44;88.11
76291;DHT22;65100;46.884;17.410;2023-04-08T04:50:21;5.75;86.85
76291;DHT22;65100;46.884;17.410;2023-04-08T04:52:46;6.09;84.91
76291;DHT22;65100;46.884;17.410;2023-04-08T04:55:11;6.20;84.53
76291;DHT22;65100;46.884;17.410;2023-04-08T04:57:37;6.13;84.40
76291;DHT22;65100;46.884;17.410;2023-04-08T05:00:03;5.93;84.94
76291;DHT22;65100;46.884;17.410;2023-04-08T05:02:28;5.99;85.04
76291;DHT22;65100;46.884;17.410;2023-04-08T05:04:54;6.02;84.90
76291;DHT22;65100;46.884;17.410;2023-04-08T05:07:20;5.99;85.45
76291;DHT22;65100;46.884;17.410;2023-04-08T05:09:46;5.88;85.69
76291;DHT22;65100;46.884;17.410;2023-04-08T05:12:11;5.72;86.40
76291;DHT22;65100;46.884;17.410;2023-04-08T05:14:37;5.89;85.64
76291;DHT22;65100;46.884;17.410;2023-04-08T05:17:02;6.10;84.42
76291;DHT22;65100;46.884;17.410;2023-04-08T05:19:29;6.20;84.36
76291;DHT22;65100;46.884;17.410;2023-04-08T05:21:55;6.17;84.94
76291;DHT22;65100;46.884;17.410;2023-04-08T05:24:20;6.06;85.56
76291;DHT22;65100;46.884;17.410;2023-04-08T05:26:46;5.95;85.72
76291;DHT22;65100;46.884;17.410;2023-04-08T05:29:16;6.07;85.52
76291;DHT22;65100;46.884;17.410;2023-04-08T05:31:43;6.26;84.35
76291;DHT22;65100;46.884;17.410;2023-04-08T05:34:08;6.37;84.40
76291;DHT22;65100;46.884;17.410;2023-04-08T05:36:34;6.30;84.64
76291;DHT22;65100;46.884;17.410;2023-04-08T05:39:00;6.44;83.93
76291;DHT22;65100;46.884;17.410;2023-04-08T05:41:25;6.44;84.11
76291;DHT22;65100;46.884;17.410;2023-04-08T05:43:51;6.53;83.49
76291;DHT22;65100;46.884;17.410;2023-04-08T05:46:16;6.54;83.57
76291;DHT22;65100;46.884;17.410;2023-04-08T05:48:41;6.60;83.60
76291;DHT22;65100;46.884;17.410;2023-04-08T05:51:15;6.49;84.83
76291;DHT22;65100;46.884;17.410;2023-04-08T05:53:42;6.49;84.03
76291;DHT22;65100;46.884;17.410;2023-04-08T05:56:09;6.54;83.63
76291;DHT22;65100;46.884;17.410;2023-04-08T05:58:34;6.34;85.58
76291;DHT22;65100;46.884;17.410;2023-04-08T06:01:00;6.50;84.95
76291;DHT22;65100;46.884;17.410;2023-04-08T06:03:25;6.37;85.55
76291;DHT22;65100;46.884;17.410;2023-04-08T06:05:50;6.46;86.10
76291;DHT22;65100;46.884;17.410;2023-04-08T06:08:16;6.57;85.82
76291;DHT22;65100;46.884;17.410;2023-04-08T06:10:48;6.30;85.90
76291;DHT22;65100;46.884;17.410;2023-04-08T06:13:14;6.27;86.38
76291;DHT22;65100;46.884;17.410;2023-04-08T06:15:40;6.32;87.44
76291;DHT22;65100;46.884;17.410;2023-04-08T06:18:05;6.33;87.07
76291;DHT22;65100;46.884;17.410;2023-04-08T06:20:31;6.44;86.22
76291;DHT22;65100;46.884;17.410;2023-04-08T06:22:56;6.26;87.80
76291;DHT22;65100;46.884;17.410;2023-04-08T06:25:21;6.33;87.97
76291;DHT22;65100;46.884;17.410;2023-04-08T06:27:48;6.56;86.39
76291;DHT22;65100;46.884;17.410;2023-04-08T06:30:13;6.58;86.51
76291;DHT22;65100;46.884;17.410;2023-04-08T06:32:38;6.43;87.10
76291;DHT22;65100;46.884;17.410;2023-04-08T06:35:04;6.64;85.64
76291;DHT22;65100;46.884;17.410;2023-04-08T06:37:31;6.67;85.73
76291;DHT22;65100;46.884;17.410;2023-04-08T06:39:58;6.70;85.29
76291;DHT22;65100;46.884;17.410;2023-04-08T06:42:23;6.60;86.71
76291;DHT22;65100;46.884;17.410;2023-04-08T06:44:49;6.46;87.79
76291;DHT22;65100;46.884;17.410;2023-04-08T06:47:14;6.79;86.30
76291;DHT22;65100;46.884;17.410;2023-04-08T06:49:41;6.79;85.56
76291;DHT22;65100;46.884;17.410;2023-04-08T06:52:06;6.97;85.01
76291;DHT22;65100;46.884;17.410;2023-04-08T06:54:32;7.08;84.02
76291;DHT22;65100;46.884;17.410;2023-04-08T06:56:57;6.64;85.82
76291;DHT22;65100;46.884;17.410;2023-04-08T06:59:23;6.63;86.03
76291;DHT22;65100;46.884;17.410;2023-04-08T07:01:48;6.77;86.05
76291;DHT22;65100;46.884;17.410;2023-04-08T07:04:14;6.80;85.92
76291;DHT22;65100;46.884;17.410;2023-04-08T07:06:39;6.81;84.89
76291;DHT22;65100;46.884;17.410;2023-04-08T07:09:05;6.98;85.78
76291;DHT22;65100;46.884;17.410;2023-04-08T07:11:31;7.12;84.07
76291;DHT22;65100;46.884;17.410;2023-04-08T07:13:56;7.21;83.46
76291;DHT22;65100;46.884;17.410;2023-04-08T07:16:21;7.11;83.69
76291;DHT22;65100;46.884;17.410;2023-04-08T07:18:47;7.00;85.06
76291;DHT22;65100;46.884;17.410;2023-04-08T07:21:12;7.22;84.59
76291;DHT22;65100;46.884;17.410;2023-04-08T07:23:38;7.05;84.58
76291;DHT22;65100;46.884;17.410;2023-04-08T07:26:03;7.14;84.68
76291;DHT22;65100;46.884;17.410;2023-04-08T07:28:32;7.05;83.87
76291;DHT22;65100;46.884;17.410;2023-04-08T07:31:17;7.07;84.06
76291;DHT22;65100;46.884;17.410;2023-04-08T07:33:44;7.00;85.32
76291;DHT22;65100;46.884;17.410;2023-04-08T07:36:10;6.95;84.94
76291;DHT22;65100;46.884;17.410;2023-04-08T07:38:37;7.24;83.28
76291;DHT22;65100;46.884;17.410;2023-04-08T07:41:02;7.14;83.87
76291;DHT22;65100;46.884;17.410;2023-04-08T07:43:29;7.38;81.66
76291;DHT22;65100;46.884;17.410;2023-04-08T07:45:59;7.14;82.80
76291;DHT22;65100;46.884;17.410;2023-04-08T07:48:27;7.04;84.48
76291;DHT22;65100;46.884;17.410;2023-04-08T07:50:53;7.09;84.71
76291;DHT22;65100;46.884;17.410;2023-04-08T07:53:19;7.11;84.00
76291;DHT22;65100;46.884;17.410;2023-04-08T07:55:44;7.24;84.36
76291;DHT22;65100;46.884;17.410;2023-04-08T07:58:10;6.95;84.06
76291;DHT22;65100;46.884;17.410;2023-04-08T08:00:35;7.25;83.04
76291;DHT22;65100;46.884;17.410;2023-04-08T08:03:21;7.15;82.84
76291;DHT22;65100;46.884;17.410;2023-04-08T08:05:47;7.11;82.87
76291;DHT22;65100;46.884;17.410;2023-04-08T08:08:12;7.09;84.24
76291;DHT22;65100;46.884;17.410;2023-04-08T08:10:38;7.07;85.11
76291;DHT22;65100;46.884;17.410;2023-04-08T08:13:04;7.14;84.36
76291;DHT22;65100;46.884;17.410;2023-04-08T08:15:30;7.27;83.43
76291;DHT22;65100;46.884;17.410;2023-04-08T08:17:56;7.17;83.83
76291;DHT22;65100;46.884;17.410;2023-04-08T08:20:21;7.21;84.49
76291;DHT22;65100;46.884;17.410;2023-04-08T08:22:47;7.32;83.50
76291;DHT22;65100;46.884;17.410;2023-04-08T08:25:12;7.35;83.11
76291;DHT22;65100;46.884;17.410;2023-04-08T08:27:37;7.09;82.74
76291;DHT22;65100;46.884;17.410;2023-04-08T08:30:06;7.11;83.67
76291;DHT22;65100;46.884;17.410;2023-04-08T08:32:32;7.09;82.82
76291;DHT22;65100;46.884;17.410;2023-04-08T08:34:58;7.19;82.97
76291;DHT22;65100;46.884;17.410;2023-04-08T08:37:23;7.00;84.01
76291;DHT22;65100;46.884;17.410;2023-04-08T08:39:49;7.11;83.88
76291;DHT22;65100;46.884;17.410;2023-04-08T08:42:35;7.04;84.07
76291;DHT22;65100;46.884;17.410;2023-04-08T08:45:21;7.12;82.95
76291;DHT22;65100;46.884;17.410;2023-04-08T08:47:47;6.90;84.63
76291;DHT22;65100;46.884;17.410;2023-04-08T08:50:12;6.94;85.05
76291;DHT22;65100;46.884;17.410;2023-04-08T08:52:38;6.67;86.51
76291;DHT22;65100;46.884;17.410;2023-04-08T08:55:03;6.64;88.12
76291;DHT22;65100;46.884;17.410;2023-04-08T08:57:29;6.84;85.88
76291;DHT22;65100;46.884;17.410;2023-04-08T08:59:54;6.84;84.92
76291;DHT22;65100;46.884;17.410;2023-04-08T09:02:30;6.77;85.92
76291;DHT22;65100;46.884;17.410;2023-04-08T09:05:01;6.60;86.87
76291;DHT22;65100;46.884;17.410;2023-04-08T09:07:28;6.67;85.97
76291;DHT22;65100;46.884;17.410;2023-04-08T09:09:55;6.50;87.24
76291;DHT22;65100;46.884;17.410;2023-04-08T09:12:22;6.50;87.82
76291;DHT22;65100;46.884;17.410;2023-04-08T09:14:47;6.50;87.17
76291;DHT22;65100;46.884;17.410;2023-04-08T09:17:13;6.54;87.56
76291;DHT22;65100;46.884;17.410;2023-04-08T09:19:39;6.46;88.05
76291;DHT22;65100;46.884;17.410;2023-04-08T09:22:24;6.49;87.89
76291;DHT22;65100;46.884;17.410;2023-04-08T09:24:51;6.36;89.14
76291;DHT22;65100;46.884;17.410;2023-04-08T09:27:32;6.53;87.78
76291;DHT22;65100;46.884;17.410;2023-04-08T09:30:14;6.81;86.72
76291;DHT22;65100;46.884;17.410;2023-04-08T09:32:49;6.73;85.67
76291;DHT22;65100;46.884;17.410;2023-04-08T09:35:16;6.49;86.82
76291;DHT22;65100;46.884;17.410;2023-04-08T09:37:42;6.43;88.15
76291;DHT22;65100;46.884;17.410;2023-04-08T09:40:08;6.60;87.30
76291;DHT22;65100;46.884;17.410;2023-04-08T09:42:36;6.71;87.79
76291;DHT22;65100;46.884;17.410;2023-04-08T09:45:05;6.77;87.64
76291;DHT22;65100;46.884;17.410;2023-04-08T09:47:50;6.90;86.01
76291;DHT22;65100;46.884;17.410;2023-04-08T09:50:19;6.87;83.79
76291;DHT22;65100;46.884;17.410;2023-04-08T09:52:51;6.79;84.19
76291;DHT22;65100;46.884;17.410;2023-04-08T09:55:21;6.53;86.11
76291;DHT22;65100;46.884;17.410;2023-04-08T09:58:10;6.46;86.08
76291;DHT22;65100;46.884;17.410;2023-04-08T10:00:45;6.41;85.15
76291;DHT22;65100;46.884;17.410;2023-04-08T10:03:29;6.25;85.48
76291;DHT22;65100;46.884;17.410;2023-04-08T10:06:00;6.23;84.86
76291;DHT22;65100;46.884;17.410;2023-04-08T10:08:26;6.16;84.67
76291;DHT22;65100;46.884;17.410;2023-04-08T10:10:53;6.29;84.59
76291;DHT22;65100;46.884;17.410;2023-04-08T10:13:19;6.33;84.68
76291;DHT22;65100;46.884;17.410;2023-04-08T10:15:45;6.02;86.02
76291;DHT22;65100;46.884;17.410;2023-04-08T10:20:47;6.43;85.54
76291;DHT22;65100;46.884;17.410;2023-04-08T10:23:14;6.53;84.99
76291;DHT22;65100;46.884;17.410;2023-04-08T10:25:41;6.44;84.70
76291;DHT22;65100;46.884;17.410;2023-04-08T10:30:45;6.12;83.07
76291;DHT22;65100;46.884;17.410;2023-04-08T10:33:20;6.09;84.38
76291;DHT22;65100;46.884;17.410;2023-04-08T10:35:53;6.13;84.28
76291;DHT22;65100;46.884;17.410;2023-04-08T10:38:19;6.16;84.96
76291;DHT22;65100;46.884;17.410;2023-04-08T10:40:47;6.46;84.27
76291;DHT22;65100;46.884;17.410;2023-04-08T10:43:13;6.54;83.32
76291;DHT22;65100;46.884;17.410;2023-04-08T10:45:39;6.69;83.47
76291;DHT22;65100;46.884;17.410;2023-04-08T10:48:15;6.73;83.02
76291;DHT22;65100;46.884;17.410;2023-04-08T10:50:55;6.85;82.64
76291;DHT22;65100;46.884;17.410;2023-04-08T10:53:28;6.81;82.49
76291;DHT22;65100;46.884;17.410;2023-04-08T10:56:11;6.97;80.56
76291;DHT22;65100;46.884;17.410;2023-04-08T10:58:49;6.98;81.85
76291;DHT22;65100;46.884;17.410;2023-04-08T11:01:15;7.11;82.00
76291;DHT22;65100;46.884;17.410;2023-04-08T11:03:41;7.19;81.27
76291;DHT22;65100;46.884;17.410;2023-04-08T11:06:07;7.31;80.77
76291;DHT22;65100;46.884;17.410;2023-04-08T11:08:33;7.28;81.10
76291;DHT22;65100;46.884;17.410;2023-04-08T11:11:03;7.35;80.52
76291;DHT22;65100;46.884;17.410;2023-04-08T11:13:33;7.35;80.77
76291;DHT22;65100;46.884;17.410;2023-04-08T11:16:00;7.29;79.75
76291;DHT22;65100;46.884;17.410;2023-04-08T11:18:27;6.95;79.09
76291;DHT22;65100;46.884;17.410;2023-04-08T11:20:53;7.05;83.35
76291;DHT22;65100;46.884;17.410;2023-04-08T11:23:18;7.35;83.05
76291;DHT22;65100;46.884;17.410;2023-04-08T11:25:45;7.41;81.59
76291;DHT22;65100;46.884;17.410;2023-04-08T11:28:12;7.59;79.75
76291;DHT22;65100;46.884;17.410;2023-04-08T11:30:38;7.61;80.16
76291;DHT22;65100;46.884;17.410;2023-04-08T11:33:05;7.65;80.70
76291;DHT22;65100;46.884;17.410;2023-04-08T11:35:31;7.69;81.05
76291;DHT22;65100;46.884;17.410;2023-04-08T11:37:57;7.63;78.46
76291;DHT22;65100;46.884;17.410;2023-04-08T11:40:22;7.61;79.73
76291;DHT22;65100;46.884;17.410;2023-04-08T11:42:49;7.62;79.05
76291;DHT22;65100;46.884;17.410;2023-04-08T11:45:16;7.52;80.62
76291;DHT22;65100;46.884;17.410;2023-04-08T11:47:43;7.61;79.04
76291;DHT22;65100;46.884;17.410;2023-04-08T11:50:09;7.48;80.62
76291;DHT22;65100;46.884;17.410;2023-04-08T11:55:08;7.54;81.94
76291;DHT22;65100;46.884;17.410;2023-04-08T11:57:33;7.65;80.32
76291;DHT22;65100;46.884;17.410;2023-04-08T12:00:00;7.61;81.15
76291;DHT22;65100;46.884;17.410;2023-04-08T12:02:26;7.58;80.56
76291;DHT22;65100;46.884;17.410;2023-04-08T12:04:51;7.65;80.84
76291;DHT22;65100;46.884;17.410;2023-04-08T12:07:16;7.65;80.67
76291;DHT22;65100;46.884;17.410;2023-04-08T12:09:42;7.69;80.79
76291;DHT22;65100;46.884;17.410;2023-04-08T12:12:07;7.65;80.72
76291;DHT22;65100;46.884;17.410;2023-04-08T12:14:33;7.69;81.80
76291;DHT22;65100;46.884;17.410;2023-04-08T12:16:58;7.62;81.79
76291;DHT22;65100;46.884;17.410;2023-04-08T12:19:24;7.87;80.88
76291;DHT22;65100;46.884;17.410;2023-04-08T12:21:49;7.82;79.25
76291;DHT22;65100;46.884;17.410;2023-04-08T12:24:15;7.87;80.70
76291;DHT22;65100;46.884;17.410;2023-04-08T12:26:40;7.90;79.91
76291;DHT22;65100;46.884;17.410;2023-04-08T12:29:06;7.90;78.90
76291;DHT22;65100;46.884;17.410;2023-04-08T12:31:33;7.81;80.01
76291;DHT22;65100;46.884;17.410;2023-04-08T12:33:59;7.82;81.61
76291;DHT22;65100;46.884;17.410;2023-04-08T12:36:24;7.90;80.57
76291;DHT22;65100;46.884;17.410;2023-04-08T12:38:51;8.04;80.62
76291;DHT22;65100;46.884;17.410;2023-04-08T12:41:16;8.09;78.23
76291;DHT22;65100;46.884;17.410;2023-04-08T12:43:42;8.10;78.49
76291;DHT22;65100;46.884;17.410;2023-04-08T12:46:07;7.87;80.00
76291;DHT22;65100;46.884;17.410;2023-04-08T12:48:32;8.06;79.75
76291;DHT22;65100;46.884;17.410;2023-04-08T12:50:58;8.00;79.81
76291;DHT22;65100;46.884;17.410;2023-04-08T12:53:23;7.94;80.94
76291;DHT22;65100;46.884;17.410;2023-04-08T12:55:49;7.99;81.12
76291;DHT22;65100;46.884;17.410;2023-04-08T12:58:15;7.96;80.83
76291;DHT22;65100;46.884;17.410;2023-04-08T13:00:41;7.99;81.47
76291;DHT22;65100;46.884;17.410;2023-04-08T13:03:11;8.23;79.75
76291;DHT22;65100;46.884;17.410;2023-04-08T13:05:37;8.26;78.92
76291;DHT22;65100;46.884;17.410;2023-04-08T13:08:02;8.23;78.82
76291;DHT22;65100;46.884;17.410;2023-04-08T13:10:27;8.10;79.86
76291;DHT22;65100;46.884;17.410;2023-04-08T13:12:53;8.20;77.66
76291;DHT22;65100;46.884;17.410;2023-04-08T13:15:19;8.16;78.90
76291;DHT22;65100;46.884;17.410;2023-04-08T13:17:44;8.07;79.95
76291;DHT22;65100;46.884;17.410;2023-04-08T13:20:10;8.10;78.82
76291;DHT22;65100;46.884;17.410;2023-04-08T13:22:35;8.02;77.94
76291;DHT22;65100;46.884;17.410;2023-04-08T13:25:01;7.94;79.20
76291;DHT22;65100;46.884;17.410;2023-04-08T13:27:26;7.85;80.55
76291;DHT22;65100;46.884;17.410;2023-04-08T13:29:52;7.78;79.78
76291;DHT22;65100;46.884;17.410;2023-04-08T13:32:17;7.73;79.71
76291;DHT22;65100;46.884;17.410;2023-04-08T13:34:43;7.66;79.09
76291;DHT22;65100;46.884;17.410;2023-04-08T13:37:08;7.62;79.68
76291;DHT22;65100;46.884;17.410;2023-04-08T13:39:34;7.59;80.07
76291;DHT22;65100;46.884;17.410;2023-04-08T13:41:59;7.66;79.84
76291;DHT22;65100;46.884;17.410;2023-04-08T13:44:25;7.66;80.37
76291;DHT22;65100;46.884;17.410;2023-04-08T13:46:51;7.75;78.97
76291;DHT22;65100;46.884;17.410;2023-04-08T13:49:17;7.81;78.51
76291;DHT22;65100;46.884;17.410;2023-04-08T13:51:42;7.82;80.79
76291;DHT22;65100;46.884;17.410;2023-04-08T13:54:08;7.90;79.54
76291;DHT22;65100;46.884;17.410;2023-04-08T13:56:33;7.93;80.20
76291;DHT22;65100;46.884;17.410;2023-04-08T13:58:58;7.94;80.46
76291;DHT22;65100;46.884;17.410;2023-04-08T14:01:24;7.96;79.60
76291;DHT22;65100;46.884;17.410;2023-04-08T14:03:49;7.99;79.13
76291;DHT22;65100;46.884;17.410;2023-04-08T14:06:15;7.94;79.62
76291;DHT22;65100;46.884;17.410;2023-04-08T14:08:40;7.90;79.77
76291;DHT22;65100;46.884;17.410;2023-04-08T14:11:07;7.78;79.50
76291;DHT22;65100;46.884;17.410;2023-04-08T14:13:32;7.73;78.95
76291;DHT22;65100;46.884;17.410;2023-04-08T14:15:58;7.71;81.03
76291;DHT22;65100;46.884;17.410;2023-04-08T14:18:25;7.76;80.78
76291;DHT22;65100;46.884;17.410;2023-04-08T14:20:51;7.72;80.04
76291;DHT22;65100;46.884;17.410;2023-04-08T14:23:17;7.69;79.82
76291;DHT22;65100;46.884;17.410;2023-04-08T14:25:42;7.68;80.18
76291;DHT22;65100;46.884;17.410;2023-04-08T14:28:08;7.63;78.61
76291;DHT22;65100;46.884;17.410;2023-04-08T14:30:34;7.54;79.07
76291;DHT22;65100;46.884;17.410;2023-04-08T14:33:00;7.48;79.73
76291;DHT22;65100;46.884;17.410;2023-04-08T14:35:25;7.47;79.13
76291;DHT22;65100;46.884;17.410;2023-04-08T14:37:51;7.49;80.56
76291;DHT22;65100;46.884;17.410;2023-04-08T14:40:16;7.47;81.05
76291;DHT22;65100;46.884;17.410;2023-04-08T14:42:42;7.39;80.66
76291;DHT22;65100;46.884;17.410;2023-04-08T14:45:09;7.36;80.94
76291;DHT22;65100;46.884;17.410;2023-04-08T14:47:35;7.34;81.10
76291;DHT22;65100;46.884;17.410;2023-04-08T14:50:01;7.32;80.41
76291;DHT22;65100;46.884;17.410;2023-04-08T14:52:26;7.29;81.05
76291;DHT22;65100;46.884;17.410;2023-04-08T14:54:51;7.29;80.97
76291;DHT22;65100;46.884;17.410;2023-04-08T14:57:18;7.27;81.73
76291;DHT22;65100;46.884;17.410;2023-04-08T14:59:44;7.31;80.67
76291;DHT22;65100;46.884;17.410;2023-04-08T15:02:10;7.29;81.71
76291;DHT22;65100;46.884;17.410;2023-04-08T15:04:35;7.31;81.39
76291;DHT22;65100;46.884;17.410;2023-04-08T15:07:01;7.34;81.52
76291;DHT22;65100;46.884;17.410;2023-04-08T15:09:27;7.36;80.74
76291;DHT22;65100;46.884;17.410;2023-04-08T15:11:53;7.35;81.39
76291;DHT22;65100;46.884;17.410;2023-04-08T15:14:18;7.41;80.39
76291;DHT22;65100;46.884;17.410;2023-04-08T15:16:44;7.38;80.37
76291;DHT22;65100;46.884;17.410;2023-04-08T15:19:09;7.32;80.97
76291;DHT22;65100;46.884;17.410;2023-04-08T15:21:35;7.28;81.31
76291;DHT22;65100;46.884;17.410;2023-04-08T15:24:01;7.34;79.67
76291;DHT22;65100;46.884;17.410;2023-04-08T15:26:26;7.29;79.91
76291;DHT22;65100;46.884;17.410;2023-04-08T15:28:53;7.27;80.25
76291;DHT22;65100;46.884;17.410;2023-04-08T15:31:19;7.29;81.56
76291;DHT22;65100;46.884;17.410;2023-04-08T15:33:44;7.28;81.21
76291;DHT22;65100;46.884;17.410;2023-04-08T15:36:10;7.31;80.66
76291;DHT22;65100;46.884;17.410;2023-04-08T15:38:36;7.29;81.06
76291;DHT22;65100;46.884;17.410;2023-04-08T15:41:02;7.28;81.96